createdAt,value
2022-10-15T00:01:34.202Z,101045.97
2022-10-15T00:06:34.932Z,101061.19
2022-10-15T00:09:03.318Z,101055.16
2022-10-15T00:11:31.679Z,101053.94
2022-10-15T00:14:00.508Z,101056.72
2022-10-15T00:16:29.305Z,101047.06
2022-10-15T00:18:59.246Z,101051.00
2022-10-15T00:21:27.654Z,101059.09
2022-10-15T00:23:55.807Z,101063.28
2022-10-15T00:26:26.406Z,101062.44
2022-10-15T00:28:57.676Z,101059.13
2022-10-15T00:31:28.250Z,101055.09
2022-10-15T00:33:58.697Z,101057.88
2022-10-15T00:36:32.662Z,101062.09
2022-10-15T00:39:01.140Z,101060.16
2022-10-15T00:41:32.708Z,101056.22
2022-10-15T00:44:20.329Z,101059.34
2022-10-15T00:46:59.607Z,101057.66
2022-10-15T00:49:33.678Z,101051.22
2022-10-15T00:52:06.529Z,101050.66
2022-10-15T00:54:44.526Z,101051.72
2022-10-15T00:57:13.102Z,101047.00
2022-10-15T00:59:52.397Z,101046.56
2022-10-15T01:02:21.478Z,101037.25
2022-10-15T01:04:51.250Z,101039.88
2022-10-15T01:07:19.881Z,101041.41
2022-10-15T01:09:48.216Z,101039.34
2022-10-15T01:12:25.741Z,101028.47
2022-10-15T01:15:15.617Z,101043.53
2022-10-15T01:17:47.888Z,101038.78
2022-10-15T01:21:01.667Z,101031.97
2022-10-15T01:24:07.620Z,101034.53
2022-10-15T01:27:20.765Z,101030.59
2022-10-15T01:30:23.978Z,101031.34
2022-10-15T01:33:05.692Z,101025.09
2022-10-15T01:35:50.741Z,101018.00
2022-10-15T01:39:00.391Z,101021.19
2022-10-15T01:41:42.677Z,101022.72
2022-10-15T01:44:21.244Z,101010.06
2022-10-15T01:47:22.125Z,101004.66
2022-10-15T01:49:53.187Z,101010.78
2022-10-15T01:52:33.332Z,101013.28
2022-10-15T01:55:02.950Z,101005.19
2022-10-15T01:57:33.390Z,101003.69
2022-10-15T02:00:02.894Z,100994.31
2022-10-15T02:02:41.009Z,101002.00
2022-10-15T02:05:25.865Z,100996.28
2022-10-15T02:08:01.436Z,100994.31
2022-10-15T02:10:58.523Z,100981.91
2022-10-15T02:13:55.387Z,100982.44
2022-10-15T02:16:41.510Z,100967.69
2022-10-15T02:19:33.179Z,100972.69
2022-10-15T02:22:08.404Z,100976.72
2022-10-15T02:24:51.658Z,100980.47
2022-10-15T02:27:25.052Z,100970.44
2022-10-15T02:29:55.122Z,100969.59
2022-10-15T02:32:25.356Z,100972.25
2022-10-15T02:34:55.053Z,100967.09
2022-10-15T02:37:26.745Z,100966.69
2022-10-15T02:39:54.321Z,100967.78
2022-10-15T02:42:22.553Z,100966.13
2022-10-15T02:44:50.727Z,100972.09
2022-10-15T02:47:18.710Z,100970.66
2022-10-15T02:49:47.153Z,100966.63
2022-10-15T02:52:14.820Z,100963.16
2022-10-15T02:54:42.481Z,100968.84
2022-10-15T02:57:10.319Z,100961.06
2022-10-15T02:59:40.674Z,100968.44
2022-10-15T03:02:14.084Z,100964.25
2022-10-15T03:04:45.135Z,100960.06
2022-10-15T03:07:14.201Z,100957.97
2022-10-15T03:09:41.781Z,100953.66
2022-10-15T03:12:09.301Z,100958.22
2022-10-15T03:14:38.172Z,100955.97
2022-10-15T03:17:05.799Z,100950.44
2022-10-15T03:19:33.904Z,100947.63
2022-10-15T03:22:01.787Z,100951.63
2022-10-15T03:24:40.869Z,100955.63
2022-10-15T03:27:08.697Z,100948.72
2022-10-15T03:29:36.382Z,100939.84
2022-10-15T03:32:05.274Z,100942.50
2022-10-15T03:34:32.904Z,100941.25
2022-10-15T03:37:01.385Z,100942.09
2022-10-15T03:39:30.439Z,100932.34
2022-10-15T03:42:02.289Z,100934.28
2022-10-15T03:44:38.490Z,100935.78
2022-10-15T03:47:12.713Z,100930.88
2022-10-15T03:49:47.139Z,100934.38
2022-10-15T03:52:16.231Z,100928.94
2022-10-15T03:54:45.065Z,100932.31
2022-10-15T03:57:14.818Z,100926.00
2022-10-15T04:00:09.210Z,100933.13
2022-10-15T04:02:42.541Z,100938.53
2022-10-15T04:05:21.141Z,100928.31
2022-10-15T04:07:53.851Z,100925.97
2022-10-15T04:10:22.887Z,100927.09
2022-10-15T04:12:51.059Z,100923.75
2022-10-15T04:15:19.541Z,100917.81
2022-10-15T04:17:57.329Z,100923.78
2022-10-15T04:20:27.339Z,100931.28
2022-10-15T04:22:56.490Z,100931.78
2022-10-15T04:25:24.866Z,100937.06
2022-10-15T04:27:53.501Z,100935.19
2022-10-15T04:30:21.462Z,100945.91
2022-10-15T04:32:55.027Z,100948.53
2022-10-15T04:35:23.437Z,100951.00
2022-10-15T04:38:05.933Z,100958.34
2022-10-15T04:41:00.610Z,100958.59
2022-10-15T04:43:35.896Z,100965.81
2022-10-15T04:46:09.224Z,100960.59
2022-10-15T04:48:42.199Z,100957.06
2022-10-15T04:51:18.411Z,100951.91
2022-10-15T04:54:04.504Z,100959.03
2022-10-15T04:56:33.203Z,100956.22
2022-10-15T04:59:01.060Z,100960.28
2022-10-15T05:01:32.624Z,100952.47
2022-10-15T05:04:06.934Z,100955.50
2022-10-15T05:06:35.045Z,100957.78
2022-10-15T05:09:15.995Z,100953.47
2022-10-15T05:11:49.247Z,100962.88
2022-10-15T05:14:17.051Z,100952.78
2022-10-15T05:16:53.039Z,100950.16
2022-10-15T05:19:21.079Z,100949.97
2022-10-15T05:24:25.648Z,100953.31
2022-10-15T05:27:04.307Z,100951.13
2022-10-15T05:29:34.232Z,100957.78
2022-10-15T05:32:02.667Z,100961.91
2022-10-15T05:34:30.740Z,100952.56
2022-10-15T05:37:06.772Z,100947.69
2022-10-15T05:39:34.251Z,100955.44
2022-10-15T05:42:01.756Z,100955.63
2022-10-15T05:44:37.691Z,100962.16
2022-10-15T05:47:05.296Z,100956.34
2022-10-15T05:49:34.625Z,100971.91
2022-10-15T05:52:12.097Z,100971.56
2022-10-15T05:55:07.273Z,100981.31
2022-10-15T05:57:35.093Z,100994.72
2022-10-15T06:00:06.334Z,101008.75
2022-10-15T06:02:39.878Z,101002.88
2022-10-15T06:05:08.010Z,101003.50
2022-10-15T06:07:35.984Z,100999.56
2022-10-15T06:10:05.865Z,101005.47
2022-10-15T06:12:36.524Z,101006.53
2022-10-15T06:15:04.299Z,100994.72
2022-10-15T06:17:32.277Z,101006.06
2022-10-15T06:20:00.437Z,100997.44
2022-10-15T06:22:31.150Z,101000.09
2022-10-15T06:24:58.920Z,101004.25
2022-10-15T06:27:27.544Z,101001.81
2022-10-15T06:29:55.491Z,100995.38
2022-10-15T06:32:23.664Z,100997.06
2022-10-15T06:34:51.409Z,101002.13
2022-10-15T06:37:19.379Z,100997.94
2022-10-15T06:39:47.280Z,101000.63
2022-10-15T06:42:14.917Z,101004.25
2022-10-15T06:44:42.683Z,100995.47
2022-10-15T06:47:10.802Z,100998.72
2022-10-15T06:49:38.714Z,101002.03
2022-10-15T06:52:07.130Z,101007.19
2022-10-15T06:54:34.779Z,101012.47
2022-10-15T06:57:02.627Z,101005.75
2022-10-15T06:59:30.085Z,101010.63
2022-10-15T07:01:59.182Z,101009.09
2022-10-15T07:04:26.698Z,101009.66
2022-10-15T07:06:54.186Z,101007.88
2022-10-15T07:09:23.323Z,101002.28
2022-10-15T07:11:50.876Z,101007.06
2022-10-15T07:14:19.031Z,101006.59
2022-10-15T07:16:46.631Z,101011.19
2022-10-15T07:19:14.755Z,101001.47
2022-10-15T07:21:44.512Z,101004.91
2022-10-15T07:24:12.010Z,101018.75
2022-10-15T07:26:39.664Z,101025.84
2022-10-15T07:29:07.695Z,101026.59
2022-10-15T07:31:35.687Z,101022.75
2022-10-15T07:34:03.444Z,101023.69
2022-10-15T07:36:31.537Z,101020.00
2022-10-15T07:38:59.042Z,101030.16
2022-10-15T07:41:26.637Z,101029.31
2022-10-15T07:43:54.280Z,101035.59
2022-10-15T07:46:22.358Z,101042.84
2022-10-15T07:48:55.888Z,101041.75
2022-10-15T07:51:23.882Z,101048.00
2022-10-15T07:53:51.477Z,101051.09
2022-10-15T07:56:19.418Z,101050.38
2022-10-15T07:58:53.268Z,101056.38
2022-10-15T08:01:21.913Z,101057.09
2022-10-15T08:03:49.715Z,101062.28
2022-10-15T08:06:18.983Z,101056.97
2022-10-15T08:08:47.730Z,101068.75
2022-10-15T08:11:16.927Z,101064.31
2022-10-15T08:13:47.103Z,101071.09
2022-10-15T08:16:16.257Z,101069.69
2022-10-15T08:18:45.228Z,101068.78
2022-10-15T08:21:13.132Z,101074.06
2022-10-15T08:23:41.243Z,101073.41
2022-10-15T08:26:09.359Z,101078.44
2022-10-15T08:28:37.598Z,101074.16
2022-10-15T08:31:06.078Z,101071.38
2022-10-15T08:33:36.049Z,101084.56
2022-10-15T08:36:07.660Z,101071.13
2022-10-15T08:38:35.582Z,101071.13
2022-10-15T08:41:06.124Z,101070.31
2022-10-15T08:43:40.462Z,101083.03
2022-10-15T08:46:34.161Z,101082.56
2022-10-15T08:49:03.600Z,101081.88
2022-10-15T08:51:41.576Z,101075.38
2022-10-15T08:54:15.576Z,101074.53
2022-10-15T08:56:55.941Z,101080.31
2022-10-15T08:59:40.528Z,101080.00
2022-10-15T09:02:11.501Z,101079.00
2022-10-15T09:04:53.759Z,101082.47
2022-10-15T09:07:43.487Z,101079.16
2022-10-15T09:10:19.410Z,101086.47
2022-10-15T09:12:58.607Z,101091.13
2022-10-15T09:15:28.015Z,101078.25
2022-10-15T09:17:56.383Z,101083.94
2022-10-15T09:20:37.364Z,101086.03
2022-10-15T09:23:17.269Z,101081.91
2022-10-15T09:25:50.527Z,101086.38
2022-10-15T09:28:21.998Z,101079.44
2022-10-15T09:30:54.026Z,101080.78
2022-10-15T09:33:34.552Z,101081.28
2022-10-15T09:36:14.305Z,101080.09
2022-10-15T09:38:41.820Z,101081.78
2022-10-15T09:41:30.925Z,101085.44
2022-10-15T09:44:01.825Z,101087.22
2022-10-15T09:46:47.518Z,101079.66
2022-10-15T09:49:21.250Z,101080.34
2022-10-15T09:51:59.529Z,101080.56
2022-10-15T09:54:49.898Z,101078.09
2022-10-15T09:57:21.487Z,101077.53
2022-10-15T09:59:57.904Z,101066.78
2022-10-15T10:02:26.577Z,101067.97
2022-10-15T10:04:55.024Z,101070.69
2022-10-15T10:07:37.620Z,101068.63
2022-10-15T10:10:28.700Z,101073.88
2022-10-15T10:12:57.304Z,101072.69
2022-10-15T10:15:41.552Z,101071.47
2022-10-15T10:18:19.652Z,101075.38
2022-10-15T10:20:59.804Z,101072.22
2022-10-15T10:23:40.466Z,101077.84
2022-10-15T10:26:10.923Z,101073.78
2022-10-15T10:28:53.741Z,101068.31
2022-10-15T10:31:31.170Z,101066.75
2022-10-15T10:34:02.486Z,101076.78
2022-10-15T10:36:39.429Z,101069.91
2022-10-15T10:39:15.368Z,101079.28
2022-10-15T10:41:53.175Z,101076.78
2022-10-15T10:44:31.769Z,101081.06
2022-10-15T10:47:08.630Z,101074.47
2022-10-15T10:49:39.441Z,101079.66
2022-10-15T10:52:29.911Z,101077.97
2022-10-15T10:55:16.960Z,101071.91
2022-10-15T10:57:47.942Z,101065.09
2022-10-15T11:00:24.351Z,101066.75
2022-10-15T11:02:52.605Z,101065.78
2022-10-15T11:05:27.293Z,101070.81
2022-10-15T11:07:54.767Z,101058.63
2022-10-15T11:10:28.337Z,101062.00
2022-10-15T11:15:43.424Z,101051.19
2022-10-15T11:18:39.917Z,101047.28
2022-10-15T11:21:33.972Z,101049.31
2022-10-15T11:24:11.537Z,101047.47
2022-10-15T11:27:06.350Z,101054.59
2022-10-15T11:29:51.892Z,101064.56
2022-10-15T11:32:28.413Z,101072.38
2022-10-15T11:35:41.007Z,101048.00
2022-10-15T11:38:23.960Z,101055.56
2022-10-15T11:41:23.791Z,101054.25
2022-10-15T11:44:13.053Z,101041.25
2022-10-15T11:47:10.572Z,101041.47
2022-10-15T11:49:56.586Z,101032.44
2022-10-15T11:52:55.192Z,101032.03
2022-10-15T11:55:32.963Z,101026.81
2022-10-15T11:58:06.278Z,101029.19
2022-10-15T12:00:39.892Z,101027.16
2022-10-15T12:03:15.877Z,101026.28
2022-10-15T12:05:50.347Z,101025.25
2022-10-15T12:08:20.074Z,101022.25
2022-10-15T12:11:05.326Z,101030.97
2022-10-15T12:13:36.171Z,101027.06
2022-10-15T12:16:26.667Z,101024.38
2022-10-15T12:19:13.547Z,101029.50
2022-10-15T12:21:56.351Z,101025.03
2022-10-15T12:24:40.957Z,101016.81
2022-10-15T12:27:44.303Z,101008.56
2022-10-15T12:30:20.750Z,101004.59
2022-10-15T12:32:50.955Z,101001.41
2022-10-15T12:35:50.096Z,101008.97
2022-10-15T12:38:28.029Z,100997.13
2022-10-15T12:41:06.477Z,100991.25
2022-10-15T12:43:37.867Z,100994.88
2022-10-15T12:46:08.167Z,100999.25
2022-10-15T12:48:40.159Z,101000.06
2022-10-15T12:51:17.167Z,100994.91
2022-10-15T12:53:46.664Z,100998.19
2022-10-15T12:56:17.730Z,100991.88
2022-10-15T12:58:48.433Z,100991.72
2022-10-15T13:01:16.044Z,100989.34
2022-10-15T13:03:53.344Z,100984.94
2022-10-15T13:06:21.923Z,100978.81
2022-10-15T13:08:52.396Z,100973.94
2022-10-15T13:11:32.023Z,100973.13
2022-10-15T13:14:03.337Z,100972.28
2022-10-15T13:16:31.569Z,100962.59
2022-10-15T13:19:00.377Z,100970.22
2022-10-15T13:21:52.323Z,100966.81
2022-10-15T13:24:23.607Z,100968.13
2022-10-15T13:26:53.624Z,100977.56
2022-10-15T13:29:24.750Z,100974.44
2022-10-15T13:31:55.157Z,100979.13
2022-10-15T13:34:29.303Z,100979.16
2022-10-15T13:36:59.770Z,100970.94
2022-10-15T13:39:30.002Z,100968.56
2022-10-15T13:42:18.993Z,100974.19
2022-10-15T13:44:56.801Z,100976.78
2022-10-15T13:47:29.762Z,100979.34
2022-10-15T13:50:19.335Z,100970.56
2022-10-15T13:53:05.607Z,100973.72
2022-10-15T13:55:37.068Z,100978.47
2022-10-15T13:58:22.358Z,100975.06
2022-10-15T14:00:58.835Z,100973.69
2022-10-15T14:03:32.542Z,100970.84
2022-10-15T14:06:17.555Z,100977.03
2022-10-15T14:08:46.519Z,100969.44
2022-10-15T14:11:15.313Z,100962.97
2022-10-15T14:13:50.900Z,100969.09
2022-10-15T14:16:24.682Z,100970.91
2022-10-15T14:18:56.680Z,100959.97
2022-10-15T14:21:30.928Z,100951.69
2022-10-15T14:24:15.115Z,100958.56
2022-10-15T14:26:44.446Z,100948.44
2022-10-15T14:29:36.647Z,100962.00
2022-10-15T14:32:22.322Z,100962.97
2022-10-15T14:34:51.536Z,100957.81
2022-10-15T14:37:35.351Z,100962.16
2022-10-15T14:40:12.524Z,100956.63
2022-10-15T14:43:02.743Z,100958.91
2022-10-15T14:45:55.627Z,100955.84
2022-10-15T14:48:32.667Z,100963.53
2022-10-15T14:51:12.571Z,100956.63
2022-10-15T14:53:45.813Z,100967.84
2022-10-15T14:56:24.285Z,100954.16
2022-10-15T14:58:56.719Z,100966.94
2022-10-15T15:01:25.189Z,100964.16
2022-10-15T15:03:55.224Z,100960.94
2022-10-15T15:06:23.416Z,100957.66
2022-10-15T15:08:51.377Z,100957.00
2022-10-15T15:11:23.689Z,100966.22
2022-10-15T15:13:52.306Z,100959.13
2022-10-15T15:16:20.329Z,100968.66
2022-10-15T15:18:49.042Z,100960.66
2022-10-15T15:21:22.326Z,100958.38
2022-10-15T15:23:50.250Z,100966.75
2022-10-15T15:26:18.425Z,100964.25
2022-10-15T15:28:46.516Z,100964.50
2022-10-15T15:31:18.206Z,100958.34
2022-10-15T15:33:46.675Z,100978.81
2022-10-15T15:36:20.602Z,100970.66
2022-10-15T15:38:52.108Z,100981.06
2022-10-15T15:41:22.283Z,100975.91
2022-10-15T15:43:51.409Z,100980.69
2022-10-15T15:46:19.591Z,100974.84
2022-10-15T15:48:47.821Z,100986.22
2022-10-15T15:51:26.848Z,100989.97
2022-10-15T15:53:55.930Z,100983.78
2022-10-15T15:56:23.861Z,100991.38
2022-10-15T15:58:51.983Z,100987.13
2022-10-15T16:01:20.534Z,100987.44
2022-10-15T16:03:48.714Z,100991.06
2022-10-15T16:06:16.395Z,100994.66
2022-10-15T16:08:44.295Z,101004.50
2022-10-15T16:11:12.229Z,101005.28
2022-10-15T16:13:41.500Z,101002.47
2022-10-15T16:16:09.996Z,101007.59
2022-10-15T16:18:37.868Z,101007.59
2022-10-15T16:21:05.676Z,101009.75
2022-10-15T16:23:34.042Z,101011.25
2022-10-15T16:26:01.662Z,101016.06
2022-10-15T16:28:29.184Z,101016.72
2022-10-15T16:31:13.576Z,101036.38
2022-10-15T16:33:41.769Z,101036.50
2022-10-15T16:36:10.365Z,101037.75
2022-10-15T16:38:40.439Z,101040.88
2022-10-15T16:41:08.919Z,101048.97
2022-10-15T16:43:37.064Z,101044.44
2022-10-15T16:46:05.783Z,101059.03
2022-10-15T16:48:35.007Z,101059.81
2022-10-15T16:51:04.752Z,101062.28
2022-10-15T16:53:33.917Z,101067.41
2022-10-15T16:56:04.709Z,101074.34
2022-10-15T16:58:32.716Z,101079.13
2022-10-15T17:01:02.102Z,101077.00
2022-10-15T17:03:30.336Z,101074.09
2022-10-15T17:06:03.569Z,101090.84
2022-10-15T17:08:35.877Z,101098.47
2022-10-15T17:11:15.858Z,101097.41
2022-10-15T17:13:44.646Z,101101.66
2022-10-15T17:16:28.385Z,101095.66
2022-10-15T17:18:57.214Z,101107.28
2022-10-15T17:21:27.742Z,101112.25
2022-10-15T17:23:58.076Z,101116.50
2022-10-15T17:26:29.240Z,101121.84
2022-10-15T17:29:20.492Z,101125.41
2022-10-15T17:31:50.199Z,101131.56
2022-10-15T17:34:40.337Z,101137.41
2022-10-15T17:37:11.699Z,101139.63
2022-10-15T17:39:39.516Z,101140.00
2022-10-15T17:42:08.293Z,101140.38
2022-10-15T17:44:36.587Z,101137.81
2022-10-15T17:47:04.189Z,101151.47
2022-10-15T17:49:31.794Z,101153.91
2022-10-15T17:51:59.756Z,101156.44
2022-10-15T17:54:27.394Z,101153.44
2022-10-15T17:56:55.001Z,101160.31
2022-10-15T17:59:23.025Z,101165.69
2022-10-15T18:01:59.810Z,101162.66
2022-10-15T18:04:29.521Z,101157.63
2022-10-15T18:06:57.584Z,101166.53
2022-10-15T18:09:26.439Z,101167.66
2022-10-15T18:11:57.576Z,101176.50
2022-10-15T18:14:29.631Z,101174.81
2022-10-15T18:16:58.437Z,101182.13
2022-10-15T18:19:26.873Z,101186.47
2022-10-15T18:21:58.172Z,101182.78
2022-10-15T18:24:25.958Z,101190.19
2022-10-15T18:26:54.281Z,101184.94
2022-10-15T18:29:22.650Z,101185.78
2022-10-15T18:31:56.230Z,101189.44
2022-10-15T18:34:25.736Z,101188.91
2022-10-15T18:36:53.398Z,101196.66
2022-10-15T18:39:26.765Z,101201.22
2022-10-15T18:41:54.464Z,101205.63
2022-10-15T18:44:23.473Z,101205.78
2022-10-15T18:46:51.532Z,101206.19
2022-10-15T18:49:20.849Z,101212.41
2022-10-15T18:51:52.004Z,101205.88
2022-10-15T18:54:21.215Z,101209.16
2022-10-15T18:56:53.466Z,101207.41
2022-10-15T18:59:37.193Z,101206.59
2022-10-15T19:02:14.681Z,101216.84
2022-10-15T19:04:44.463Z,101212.69
2022-10-15T19:07:17.126Z,101212.84
2022-10-15T19:11:10.035Z,101221.25
2022-10-15T19:13:38.174Z,101221.00
2022-10-15T19:16:06.725Z,101223.16
2022-10-15T19:18:37.281Z,101218.94
2022-10-15T19:21:06.032Z,101221.78
2022-10-15T19:23:34.793Z,101221.41
2022-10-15T19:26:06.290Z,101222.25
2022-10-15T19:28:34.191Z,101224.22
2022-10-15T19:31:04.143Z,101217.78
2022-10-15T19:33:38.023Z,101218.06
2022-10-15T19:36:06.014Z,101216.69
2022-10-15T19:38:34.643Z,101214.88
2022-10-15T19:41:06.457Z,101218.78
2022-10-15T19:43:34.029Z,101224.69
2022-10-15T19:46:04.666Z,101224.38
2022-10-15T19:48:34.975Z,101222.31
2022-10-15T19:51:03.810Z,101232.34
2022-10-15T19:53:35.504Z,101226.78
2022-10-15T19:56:08.444Z,101234.91
2022-10-15T19:58:36.797Z,101236.84
2022-10-15T20:01:05.975Z,101238.00
2022-10-15T20:06:07.771Z,101243.13
2022-10-15T20:08:36.246Z,101250.41
2022-10-15T20:11:08.531Z,101248.13
2022-10-15T20:13:36.907Z,101256.25
2022-10-15T20:16:07.399Z,101253.88
2022-10-15T20:18:36.513Z,101259.72
2022-10-15T20:21:12.704Z,101254.41
2022-10-15T20:23:41.303Z,101253.03
2022-10-15T20:26:14.076Z,101256.78
2022-10-15T20:28:44.366Z,101260.56
2022-10-15T20:31:16.508Z,101261.38
2022-10-15T20:33:44.546Z,101271.19
2022-10-15T20:36:17.141Z,101276.22
2022-10-15T20:38:47.999Z,101279.66
2022-10-15T20:41:17.411Z,101281.19
2022-10-15T20:43:47.374Z,101287.03
2022-10-15T20:46:29.076Z,101299.03
2022-10-15T20:49:03.315Z,101306.44
2022-10-15T20:51:33.729Z,101302.13
2022-10-15T20:54:02.190Z,101311.84
2022-10-15T20:56:30.567Z,101314.94
2022-10-15T20:58:58.363Z,101327.81
2022-10-15T21:01:25.959Z,101324.28
2022-10-15T21:03:53.627Z,101326.06
2022-10-15T21:06:21.298Z,101335.44
2022-10-15T21:08:48.884Z,101331.63
2022-10-15T21:11:16.396Z,101335.13
2022-10-15T21:13:44.587Z,101337.22
2022-10-15T21:16:12.322Z,101343.00
2022-10-15T21:18:40.067Z,101353.38
2022-10-15T21:21:10.281Z,101350.00
2022-10-15T21:23:39.761Z,101354.22
2022-10-15T21:26:12.679Z,101357.97
2022-10-15T21:28:41.314Z,101358.69
2022-10-15T21:31:11.716Z,101360.19
2022-10-15T21:33:39.988Z,101363.81
2022-10-15T21:36:26.451Z,101366.34
2022-10-15T21:38:59.339Z,101374.34
2022-10-15T21:41:29.161Z,101374.00
2022-10-15T21:43:57.718Z,101374.84
2022-10-15T21:46:25.504Z,101387.44
2022-10-15T21:48:53.998Z,101385.34
2022-10-15T21:51:28.516Z,101377.13
2022-10-15T21:53:57.999Z,101383.75
2022-10-15T21:56:25.883Z,101378.28
2022-10-15T21:58:54.683Z,101376.28
2022-10-15T22:01:25.506Z,101378.25
2022-10-15T22:03:57.898Z,101382.91
2022-10-15T22:06:27.635Z,101380.25
2022-10-15T22:08:55.924Z,101383.59
2022-10-15T22:11:29.947Z,101382.66
2022-10-15T22:13:59.747Z,101381.97
2022-10-15T22:16:28.574Z,101387.72
2022-10-15T22:18:57.847Z,101398.69
2022-10-15T22:21:28.729Z,101391.22
2022-10-15T22:24:02.044Z,101397.22
2022-10-15T22:26:34.007Z,101397.38
2022-10-15T22:29:03.577Z,101398.09
2022-10-15T22:31:32.949Z,101404.09
2022-10-15T22:34:01.149Z,101406.75
2022-10-15T22:36:31.419Z,101406.75
2022-10-15T22:39:02.416Z,101410.66
2022-10-15T22:41:32.711Z,101406.31
2022-10-15T22:44:00.883Z,101408.53
2022-10-15T22:46:32.064Z,101408.84
2022-10-15T22:49:00.093Z,101415.00
2022-10-15T22:51:27.639Z,101406.03
2022-10-15T22:53:56.633Z,101408.69
2022-10-15T22:56:25.312Z,101408.25
2022-10-15T22:58:53.188Z,101413.69
2022-10-15T23:01:23.876Z,101416.22
2022-10-15T23:03:54.290Z,101411.88
2022-10-15T23:06:23.648Z,101414.00
2022-10-15T23:08:51.713Z,101409.13
2022-10-15T23:11:22.999Z,101409.22
2022-10-15T23:13:57.069Z,101405.56
2022-10-15T23:16:29.109Z,101403.91
2022-10-15T23:19:09.340Z,101413.81
2022-10-15T23:21:46.127Z,101417.28
2022-10-15T23:24:15.385Z,101407.88
2022-10-15T23:26:44.220Z,101420.59
2022-10-15T23:29:37.825Z,101413.81
2022-10-15T23:32:05.727Z,101410.63
2022-10-15T23:34:33.530Z,101413.56
2022-10-15T23:37:01.819Z,101417.97
2022-10-15T23:39:29.682Z,101425.72
2022-10-15T23:41:57.238Z,101428.50
2022-10-15T23:44:25.907Z,101431.81
2022-10-15T23:46:53.712Z,101429.53
2022-10-15T23:49:21.268Z,101432.31
2022-10-15T23:51:48.848Z,101427.31
2022-10-15T23:54:18.313Z,101431.88
2022-10-15T23:56:47.040Z,101435.31
2022-10-15T23:59:17.141Z,101444.97
